createdAt,value
2023-05-24T00:00:47.807Z,10.48
2023-05-24T00:03:11.514Z,10.48
2023-05-24T00:05:37.909Z,10.35
2023-05-24T00:08:01.607Z,10.35
2023-05-24T00:10:25.245Z,10.23
2023-05-24T00:12:48.823Z,10.27
2023-05-24T00:15:12.889Z,10.31
2023-05-24T00:17:41.197Z,10.10
2023-05-24T00:20:07.388Z,10.40
2023-05-24T00:22:32.559Z,10.33
2023-05-24T00:24:56.177Z,10.27
2023-05-24T00:27:19.912Z,10.48
2023-05-24T00:29:43.761Z,10.52
2023-05-24T00:32:08.034Z,10.46
2023-05-24T00:34:33.899Z,10.45
2023-05-24T00:36:57.891Z,10.43
2023-05-24T00:39:24.611Z,10.28
2023-05-24T00:41:48.170Z,10.54
2023-05-24T00:44:12.056Z,10.45
2023-05-24T00:46:36.476Z,10.45
2023-05-24T00:49:00.559Z,10.48
2023-05-24T00:51:26.524Z,10.50
2023-05-24T00:53:51.374Z,10.60
2023-05-24T00:56:17.514Z,10.57
2023-05-24T00:58:41.940Z,10.71
2023-05-24T01:01:08.323Z,10.78
2023-05-24T01:03:32.100Z,10.85
2023-05-24T01:05:57.061Z,10.83
2023-05-24T01:08:44.659Z,10.84
2023-05-24T01:11:27.793Z,10.69
2023-05-24T01:14:00.646Z,10.86
2023-05-24T01:16:30.173Z,10.65
2023-05-24T01:18:59.079Z,10.79
2023-05-24T01:21:48.275Z,10.80
2023-05-24T01:24:22.727Z,10.92
2023-05-24T01:27:05.879Z,10.81
2023-05-24T01:29:32.762Z,10.85
2023-05-24T01:31:56.455Z,10.69
2023-05-24T01:34:20.219Z,10.72
2023-05-24T01:36:44.260Z,10.65
2023-05-24T01:39:09.965Z,10.80
2023-05-24T01:41:42.449Z,10.84
2023-05-24T01:44:20.057Z,10.87
2023-05-24T01:46:43.793Z,10.71
2023-05-24T01:49:23.868Z,10.80
2023-05-24T01:51:52.540Z,10.84
2023-05-24T01:54:17.421Z,10.84
2023-05-24T01:56:42.245Z,10.82
2023-05-24T01:59:07.801Z,10.84
2023-05-24T02:01:32.878Z,10.84
2023-05-24T02:03:56.795Z,10.83
2023-05-24T02:06:20.551Z,10.89
2023-05-24T02:08:44.183Z,10.98
2023-05-24T02:11:07.911Z,10.80
2023-05-24T02:13:31.536Z,10.84
2023-05-24T02:15:56.535Z,10.67
2023-05-24T02:18:22.761Z,10.84
2023-05-24T02:20:47.157Z,10.68
2023-05-24T02:23:10.806Z,10.76
2023-05-24T02:25:34.952Z,10.77
2023-05-24T02:27:58.677Z,10.97
2023-05-24T02:30:22.576Z,10.88
2023-05-24T02:32:47.867Z,10.87
2023-05-24T02:35:11.876Z,10.80
2023-05-24T02:37:35.489Z,10.89
2023-05-24T02:39:59.083Z,10.89
2023-05-24T02:42:22.654Z,10.83
2023-05-24T02:44:48.034Z,10.88
2023-05-24T02:47:11.600Z,10.96
2023-05-24T02:49:36.715Z,11.02
2023-05-24T02:52:00.591Z,10.61
2023-05-24T02:54:24.193Z,10.70
2023-05-24T02:56:47.978Z,10.70
2023-05-24T02:59:13.790Z,10.63
2023-05-24T03:01:37.819Z,10.53
2023-05-24T03:04:01.863Z,10.65
2023-05-24T03:06:28.527Z,10.60
2023-05-24T03:08:53.061Z,10.21
2023-05-24T03:11:16.819Z,10.48
2023-05-24T03:13:40.640Z,10.37
2023-05-24T03:16:04.537Z,10.40
2023-05-24T03:18:28.232Z,10.60
2023-05-24T03:20:51.908Z,10.39
2023-05-24T03:23:17.012Z,10.54
2023-05-24T03:25:41.029Z,10.40
2023-05-24T03:28:05.031Z,10.51
2023-05-24T03:30:29.468Z,10.44
2023-05-24T03:32:56.715Z,10.42
2023-05-24T03:35:21.133Z,10.40
2023-05-24T03:37:45.786Z,10.47
2023-05-24T03:40:11.962Z,10.45
2023-05-24T03:42:58.496Z,10.45
2023-05-24T03:45:54.398Z,10.73
2023-05-24T03:48:20.760Z,10.65
2023-05-24T03:50:44.723Z,10.70
2023-05-24T03:53:08.645Z,10.66
2023-05-24T03:55:33.767Z,10.70
2023-05-24T03:57:57.385Z,10.71
2023-05-24T04:00:21.464Z,10.72
2023-05-24T04:02:45.995Z,10.71
2023-05-24T04:05:10.896Z,10.74
2023-05-24T04:07:37.042Z,10.78
2023-05-24T04:10:00.705Z,10.88
2023-05-24T04:12:25.697Z,10.86
2023-05-24T04:14:49.332Z,10.84
2023-05-24T04:17:13.136Z,10.76
2023-05-24T04:19:37.469Z,10.98
2023-05-24T04:22:01.876Z,10.93
2023-05-24T04:24:25.867Z,10.92
2023-05-24T04:26:49.558Z,10.92
2023-05-24T04:29:14.602Z,10.90
2023-05-24T04:31:38.380Z,10.83
2023-05-24T04:34:02.177Z,10.73
2023-05-24T04:36:27.074Z,10.69
2023-05-24T04:38:53.660Z,10.85
2023-05-24T04:41:17.269Z,10.90
2023-05-24T04:43:40.924Z,11.01
2023-05-24T04:46:07.567Z,10.99
2023-05-24T04:48:32.665Z,10.80
2023-05-24T04:50:58.155Z,10.90
2023-05-24T04:53:21.970Z,10.83
2023-05-24T04:55:45.612Z,10.99
2023-05-24T04:58:10.700Z,11.02
2023-05-24T05:00:34.513Z,11.02
2023-05-24T05:02:59.584Z,11.10
2023-05-24T05:05:23.393Z,11.00
2023-05-24T05:07:47.183Z,10.99
2023-05-24T05:10:11.367Z,10.93
2023-05-24T05:12:34.947Z,11.07
2023-05-24T05:14:58.548Z,11.25
2023-05-24T05:17:22.108Z,11.09
2023-05-24T05:19:47.138Z,11.06
2023-05-24T05:22:11.036Z,11.01
2023-05-24T05:24:34.797Z,11.12
2023-05-24T05:26:58.465Z,11.29
2023-05-24T05:29:24.256Z,11.29
2023-05-24T05:31:48.888Z,11.25
2023-05-24T05:34:12.530Z,11.34
2023-05-24T05:36:40.715Z,11.51
2023-05-24T05:39:04.673Z,11.36
2023-05-24T05:41:28.374Z,11.31
2023-05-24T05:43:52.040Z,11.56
2023-05-24T05:46:16.257Z,11.45
2023-05-24T05:48:40.077Z,11.42
2023-05-24T05:51:03.687Z,11.53
2023-05-24T05:53:28.710Z,11.61
2023-05-24T05:55:52.441Z,11.63
2023-05-24T05:58:16.307Z,11.77
2023-05-24T06:00:39.979Z,11.45
2023-05-24T06:03:03.795Z,11.66
2023-05-24T06:05:27.438Z,11.66
2023-05-24T06:07:51.126Z,11.70
2023-05-24T06:10:16.134Z,11.83
2023-05-24T06:12:40.665Z,11.88
2023-05-24T06:15:06.513Z,12.05
2023-05-24T06:17:30.226Z,12.00
2023-05-24T06:19:53.983Z,11.91
2023-05-24T06:22:17.632Z,11.96
2023-05-24T06:24:41.342Z,11.98
2023-05-24T06:27:06.815Z,12.18
2023-05-24T06:29:30.361Z,12.16
2023-05-24T06:31:54.076Z,11.94
2023-05-24T06:34:18.994Z,12.47
2023-05-24T06:36:43.139Z,12.46
2023-05-24T06:39:06.862Z,12.51
2023-05-24T06:41:30.580Z,12.44
2023-05-24T06:43:55.788Z,12.47
2023-05-24T06:46:19.529Z,12.46
2023-05-24T06:48:43.394Z,12.53
2023-05-24T06:51:07.333Z,12.29
2023-05-24T06:53:30.957Z,12.78
2023-05-24T06:55:56.922Z,12.70
2023-05-24T06:58:21.660Z,12.66
2023-05-24T07:00:46.954Z,12.95
2023-05-24T07:03:11.207Z,12.87
2023-05-24T07:05:36.764Z,12.94
2023-05-24T07:08:00.375Z,13.06
2023-05-24T07:10:24.226Z,12.93
2023-05-24T07:12:47.771Z,13.15
2023-05-24T07:15:11.913Z,13.36
2023-05-24T07:17:37.237Z,13.31
2023-05-24T07:20:02.247Z,13.35
2023-05-24T07:22:28.697Z,13.39
2023-05-24T07:24:52.539Z,13.31
2023-05-24T07:27:16.193Z,13.43
2023-05-24T07:29:39.825Z,13.30
2023-05-24T07:32:04.101Z,13.39
2023-05-24T07:34:30.304Z,13.66
2023-05-24T07:36:53.919Z,13.87
2023-05-24T07:39:18.942Z,13.76
2023-05-24T07:41:42.569Z,13.65
2023-05-24T07:44:06.433Z,13.47
2023-05-24T07:46:30.137Z,14.14
2023-05-24T07:48:53.861Z,13.73
2023-05-24T07:51:18.955Z,14.18
2023-05-24T07:53:43.142Z,14.14
2023-05-24T07:56:08.005Z,14.18
2023-05-24T07:58:31.860Z,13.94
2023-05-24T08:00:56.756Z,13.71
2023-05-24T08:03:20.459Z,14.36
2023-05-24T08:05:44.223Z,14.26
2023-05-24T08:08:09.654Z,13.93
2023-05-24T08:10:33.298Z,14.30
2023-05-24T08:12:56.912Z,14.08
2023-05-24T08:15:20.491Z,14.09
2023-05-24T08:17:44.171Z,14.22
2023-05-24T08:20:10.166Z,13.95
2023-05-24T08:22:34.014Z,14.70
2023-05-24T08:24:59.670Z,14.81
2023-05-24T08:27:23.726Z,14.69
2023-05-24T08:29:47.343Z,14.73
2023-05-24T08:32:11.399Z,14.93
2023-05-24T08:34:36.466Z,15.04
2023-05-24T08:37:00.135Z,14.89
2023-05-24T08:39:23.833Z,14.92
2023-05-24T08:42:00.936Z,13.73
2023-05-24T08:44:33.547Z,13.35
2023-05-24T08:46:59.948Z,14.02
2023-05-24T08:49:23.991Z,13.65
2023-05-24T08:51:47.592Z,13.79
2023-05-24T08:54:13.797Z,14.24
2023-05-24T08:56:38.133Z,13.98
2023-05-24T08:59:03.178Z,13.87
2023-05-24T09:01:30.418Z,13.44
2023-05-24T09:03:56.287Z,13.54
2023-05-24T09:06:20.500Z,14.37
2023-05-24T09:08:45.191Z,14.45
2023-05-24T09:11:10.446Z,14.69
2023-05-24T09:13:35.042Z,14.83
2023-05-24T09:16:01.056Z,14.56
2023-05-24T09:18:24.848Z,13.85
2023-05-24T09:20:48.500Z,14.04
2023-05-24T09:23:14.634Z,13.90
2023-05-24T09:25:38.608Z,13.48
2023-05-24T09:28:08.517Z,14.29
2023-05-24T09:30:32.116Z,14.16
2023-05-24T09:33:01.965Z,14.66
2023-05-24T09:35:26.898Z,14.38
2023-05-24T09:37:50.503Z,13.69
2023-05-24T09:40:20.726Z,13.90
2023-05-24T09:42:44.414Z,13.94
2023-05-24T09:45:10.533Z,13.76
2023-05-24T09:47:35.531Z,14.54
2023-05-24T09:50:01.484Z,15.24
2023-05-24T09:52:25.178Z,15.33
2023-05-24T09:54:50.041Z,14.66
2023-05-24T09:57:13.692Z,14.89
2023-05-24T09:59:41.888Z,15.37
2023-05-24T10:02:13.841Z,15.42
2023-05-24T10:04:39.062Z,15.82
2023-05-24T10:07:07.443Z,16.03
2023-05-24T10:09:34.504Z,15.88
2023-05-24T10:11:59.545Z,15.18
2023-05-24T10:14:25.970Z,14.48
2023-05-24T10:16:50.864Z,15.00
2023-05-24T10:19:17.232Z,15.14
2023-05-24T10:21:44.989Z,15.51
2023-05-24T10:24:13.667Z,15.73
2023-05-24T10:26:40.727Z,15.92
2023-05-24T10:29:11.038Z,15.61
2023-05-24T10:31:40.609Z,15.13
2023-05-24T10:34:08.876Z,15.29
2023-05-24T10:36:35.103Z,15.81
2023-05-24T10:38:58.850Z,15.08
2023-05-24T10:41:27.103Z,14.80
2023-05-24T10:44:08.034Z,15.19
2023-05-24T10:46:35.003Z,15.65
2023-05-24T10:49:02.832Z,15.55
2023-05-24T10:51:38.901Z,15.94
2023-05-24T10:54:27.239Z,15.74
2023-05-24T10:56:53.597Z,15.71
2023-05-24T10:59:37.695Z,15.04
2023-05-24T11:02:02.107Z,15.45
2023-05-24T11:04:26.484Z,16.11
2023-05-24T11:06:55.754Z,16.85
2023-05-24T11:09:20.283Z,17.01
2023-05-24T11:11:46.870Z,15.95
2023-05-24T11:14:11.963Z,16.15
2023-05-24T11:16:39.579Z,16.91
2023-05-24T11:19:14.264Z,16.27
2023-05-24T11:21:38.500Z,17.01
2023-05-24T11:24:02.881Z,16.20
2023-05-24T11:26:26.610Z,16.43
2023-05-24T11:28:50.597Z,17.04
2023-05-24T11:31:15.988Z,17.01
2023-05-24T11:33:43.704Z,17.17
2023-05-24T11:36:09.692Z,17.35
2023-05-24T11:38:36.738Z,17.52
2023-05-24T11:41:00.637Z,17.17
2023-05-24T11:43:24.287Z,17.09
2023-05-24T11:45:50.883Z,17.33
2023-05-24T11:48:16.752Z,16.79
2023-05-24T11:50:49.543Z,17.65
2023-05-24T11:53:15.565Z,17.34
2023-05-24T11:55:41.226Z,17.36
2023-05-24T11:58:11.787Z,16.71
2023-05-24T12:00:36.474Z,16.39
2023-05-24T12:03:05.291Z,16.67
2023-05-24T12:05:32.011Z,17.15
2023-05-24T12:08:06.014Z,16.71
2023-05-24T12:10:29.677Z,16.66
2023-05-24T12:12:53.247Z,16.78
2023-05-24T12:15:18.577Z,17.47
2023-05-24T12:17:42.756Z,17.47
2023-05-24T12:20:09.052Z,17.50
2023-05-24T12:22:34.052Z,17.61
2023-05-24T12:24:58.932Z,17.19
2023-05-24T12:27:27.009Z,17.50
2023-05-24T12:29:50.757Z,17.95
2023-05-24T12:32:15.458Z,17.60
2023-05-24T12:34:42.430Z,17.38
2023-05-24T12:37:06.184Z,17.60
2023-05-24T12:39:34.249Z,17.38
2023-05-24T12:41:58.774Z,17.90
2023-05-24T12:44:26.652Z,17.66
2023-05-24T12:46:50.476Z,17.70
2023-05-24T12:49:14.320Z,17.98
2023-05-24T12:51:37.865Z,18.68
2023-05-24T12:54:04.907Z,18.11
2023-05-24T12:56:30.151Z,17.94
2023-05-24T12:58:55.859Z,18.60
2023-05-24T13:01:19.749Z,18.94
2023-05-24T13:03:43.650Z,18.39
2023-05-24T13:06:07.725Z,18.96
2023-05-24T13:08:31.347Z,19.25
2023-05-24T13:10:54.957Z,20.08
2023-05-24T13:13:20.051Z,19.56
2023-05-24T13:15:44.710Z,19.68
2023-05-24T13:18:09.075Z,20.24
2023-05-24T13:20:32.824Z,20.22
2023-05-24T13:22:56.564Z,19.88
2023-05-24T13:25:22.507Z,20.34
2023-05-24T13:27:46.143Z,19.61
2023-05-24T13:30:13.733Z,20.12
2023-05-24T13:32:39.743Z,20.52
2023-05-24T13:35:08.137Z,20.26
2023-05-24T13:37:37.512Z,19.91
2023-05-24T13:40:01.287Z,18.73
2023-05-24T13:42:25.275Z,20.11
2023-05-24T13:44:48.924Z,20.30
2023-05-24T13:47:23.813Z,20.27
2023-05-24T13:49:56.471Z,19.47
2023-05-24T13:52:20.100Z,18.88
2023-05-24T13:54:43.766Z,20.43
2023-05-24T13:57:07.492Z,19.61
2023-05-24T13:59:31.183Z,20.10
2023-05-24T14:01:54.760Z,20.85
2023-05-24T14:04:19.933Z,20.85
2023-05-24T14:06:43.551Z,21.12
2023-05-24T14:09:08.481Z,20.90
2023-05-24T14:11:32.563Z,21.05
2023-05-24T14:14:43.731Z,21.56
2023-05-24T14:16:40.239Z,22.41
2023-05-24T14:19:03.897Z,22.25
2023-05-24T14:21:28.902Z,21.81
2023-05-24T14:23:52.510Z,21.47
2023-05-24T14:26:18.670Z,20.61
2023-05-24T14:28:42.413Z,21.37
2023-05-24T14:31:06.498Z,21.79
2023-05-24T14:33:30.147Z,21.99
2023-05-24T14:35:53.903Z,20.81
2023-05-24T14:38:19.058Z,20.13
2023-05-24T14:40:47.154Z,20.18
2023-05-24T14:43:11.352Z,21.70
2023-05-24T14:45:35.412Z,21.87
2023-05-24T14:47:59.260Z,22.23
2023-05-24T14:50:23.235Z,21.52
2023-05-24T14:52:46.891Z,22.25
2023-05-24T14:55:12.256Z,20.64
2023-05-24T14:57:36.970Z,19.94
2023-05-24T15:00:00.766Z,20.68
2023-05-24T15:02:24.430Z,19.70
2023-05-24T15:04:48.109Z,20.65
2023-05-24T15:07:11.784Z,20.34
2023-05-24T15:09:35.454Z,20.15
2023-05-24T15:12:02.019Z,20.56
2023-05-24T15:14:25.635Z,18.90
2023-05-24T15:16:49.702Z,19.23
2023-05-24T15:19:13.459Z,18.55
2023-05-24T15:21:38.200Z,19.98
2023-05-24T15:24:01.848Z,20.20
2023-05-24T15:26:25.431Z,19.80
2023-05-24T15:28:50.493Z,20.35
2023-05-24T15:31:14.229Z,20.43
2023-05-24T15:33:38.440Z,19.81
2023-05-24T15:36:01.996Z,19.67
2023-05-24T15:38:25.689Z,20.26
2023-05-24T15:40:49.376Z,20.19
2023-05-24T15:43:13.026Z,19.92
2023-05-24T15:45:38.081Z,19.43
2023-05-24T15:48:04.539Z,19.75
2023-05-24T15:50:45.710Z,19.72
2023-05-24T15:53:11.802Z,19.82
2023-05-24T15:55:37.250Z,19.65
2023-05-24T15:58:01.124Z,19.85
2023-05-24T16:00:24.853Z,19.09
2023-05-24T16:02:49.955Z,19.56
2023-05-24T16:05:13.595Z,18.81
2023-05-24T16:07:37.264Z,18.85
2023-05-24T16:10:00.842Z,19.18
2023-05-24T16:12:26.126Z,19.15
2023-05-24T16:14:49.899Z,19.15
2023-05-24T16:17:15.049Z,19.20
2023-05-24T16:19:40.247Z,18.87
2023-05-24T16:22:04.548Z,18.73
2023-05-24T16:24:29.108Z,18.84
2023-05-24T16:26:52.727Z,18.90
2023-05-24T16:29:18.033Z,18.53
2023-05-24T16:31:41.709Z,18.53
2023-05-24T16:34:05.617Z,17.67
2023-05-24T16:36:31.280Z,17.49
2023-05-24T16:38:54.856Z,16.76
2023-05-24T16:41:18.520Z,17.49
2023-05-24T16:43:42.087Z,17.45
2023-05-24T16:46:06.113Z,17.81
2023-05-24T16:48:31.890Z,17.31
2023-05-24T16:50:56.843Z,17.82
2023-05-24T16:53:23.047Z,17.43
2023-05-24T16:55:46.977Z,17.83
2023-05-24T16:58:10.600Z,17.71
2023-05-24T17:00:34.296Z,17.49
2023-05-24T17:02:59.473Z,17.54
2023-05-24T17:05:23.271Z,17.19
2023-05-24T17:07:47.220Z,17.57
2023-05-24T17:10:12.973Z,17.94
2023-05-24T17:12:36.810Z,17.75
2023-05-24T17:15:00.414Z,17.46
2023-05-24T17:17:24.121Z,17.37
2023-05-24T17:19:47.771Z,16.87
2023-05-24T17:22:13.044Z,17.02
2023-05-24T17:24:36.829Z,17.20
2023-05-24T17:27:02.815Z,17.05
2023-05-24T17:29:27.168Z,17.06
2023-05-24T17:31:51.063Z,17.24
2023-05-24T17:34:17.147Z,16.73
2023-05-24T17:36:40.721Z,16.77
2023-05-24T17:39:04.896Z,16.78
2023-05-24T17:41:28.417Z,16.57
2023-05-24T17:43:53.492Z,16.84
2023-05-24T17:46:17.640Z,16.70
2023-05-24T17:48:42.814Z,16.80
2023-05-24T17:51:08.891Z,16.43
2023-05-24T17:53:34.771Z,16.50
2023-05-24T17:55:58.409Z,16.28
2023-05-24T17:58:22.714Z,16.44
2023-05-24T18:00:47.718Z,16.53
2023-05-24T18:03:11.361Z,16.67
2023-05-24T18:05:35.004Z,16.59
2023-05-24T18:07:58.617Z,16.53
2023-05-24T18:10:22.457Z,16.55
2023-05-24T18:12:46.664Z,16.56
2023-05-24T18:15:11.202Z,16.34
2023-05-24T18:17:36.677Z,16.24
2023-05-24T18:20:00.486Z,16.05
2023-05-24T18:22:24.223Z,15.97
2023-05-24T18:24:47.817Z,15.97
2023-05-24T18:27:11.459Z,15.97
2023-05-24T18:29:36.594Z,16.03
2023-05-24T18:32:00.327Z,16.06
2023-05-24T18:34:25.517Z,15.98
2023-05-24T18:36:49.844Z,15.74
2023-05-24T18:39:13.458Z,15.72
2023-05-24T18:41:37.142Z,15.69
2023-05-24T18:44:00.707Z,15.62
2023-05-24T18:46:25.981Z,15.52
2023-05-24T18:48:49.685Z,15.40
2023-05-24T18:51:15.994Z,15.37
2023-05-24T18:53:40.168Z,15.15
2023-05-24T18:56:04.083Z,15.16
2023-05-24T18:58:27.674Z,15.09
2023-05-24T19:00:51.593Z,15.06
2023-05-24T19:03:15.198Z,14.91
2023-05-24T19:05:42.519Z,14.85
2023-05-24T19:08:09.049Z,14.55
2023-05-24T19:10:32.879Z,14.53
2023-05-24T19:12:56.462Z,14.48
2023-05-24T19:15:20.112Z,14.33
2023-05-24T19:17:43.995Z,14.30
2023-05-24T19:20:09.102Z,14.32
2023-05-24T19:22:32.750Z,14.23
2023-05-24T19:24:57.751Z,14.08
2023-05-24T19:27:21.382Z,14.00
2023-05-24T19:29:45.083Z,13.93
2023-05-24T19:32:11.453Z,13.90
2023-05-24T19:34:37.398Z,13.85
2023-05-24T19:37:01.048Z,13.65
2023-05-24T19:39:24.918Z,13.63
2023-05-24T19:41:49.905Z,13.59
2023-05-24T19:44:13.567Z,13.41
2023-05-24T19:46:37.728Z,13.36
2023-05-24T19:49:01.505Z,13.25
2023-05-24T19:51:25.760Z,13.26
2023-05-24T19:53:50.172Z,13.08
2023-05-24T19:56:14.390Z,13.04
2023-05-24T19:58:39.777Z,12.95
2023-05-24T20:01:03.405Z,12.74
2023-05-24T20:03:27.171Z,12.81
2023-05-24T20:05:50.981Z,12.73
2023-05-24T20:08:16.662Z,12.69
2023-05-24T20:10:42.027Z,12.64
2023-05-24T20:13:06.090Z,12.52
2023-05-24T20:15:31.293Z,12.48
2023-05-24T20:17:55.285Z,12.40
2023-05-24T20:20:19.005Z,12.37
2023-05-24T20:22:43.044Z,12.33
2023-05-24T20:25:08.233Z,12.27
2023-05-24T20:27:32.658Z,12.11
2023-05-24T20:29:56.357Z,12.07
2023-05-24T20:32:21.431Z,11.94
2023-05-24T20:34:44.994Z,11.93
2023-05-24T20:37:08.645Z,11.76
2023-05-24T20:39:33.377Z,11.75
2023-05-24T20:41:58.457Z,11.70
2023-05-24T20:44:22.137Z,11.53
2023-05-24T20:46:45.795Z,11.53
2023-05-24T20:49:10.806Z,11.52
2023-05-24T20:51:34.500Z,11.41
2023-05-24T20:53:58.091Z,11.40
2023-05-24T20:56:24.062Z,11.39
2023-05-24T20:58:49.255Z,11.33
2023-05-24T21:01:12.985Z,11.24
2023-05-24T21:03:36.814Z,11.24
2023-05-24T21:06:01.920Z,11.14
2023-05-24T21:08:25.543Z,11.10
2023-05-24T21:10:49.235Z,11.07
2023-05-24T21:13:12.810Z,11.09
2023-05-24T21:15:36.535Z,11.03
2023-05-24T21:18:00.338Z,10.91
2023-05-24T21:20:24.242Z,10.93
2023-05-24T21:22:49.295Z,10.93
2023-05-24T21:25:12.911Z,10.91
2023-05-24T21:27:36.502Z,10.91
2023-05-24T21:30:03.513Z,10.90
2023-05-24T21:32:27.100Z,10.83
2023-05-24T21:34:50.909Z,10.83
2023-05-24T21:37:14.459Z,10.77
2023-05-24T21:39:39.471Z,10.75
2023-05-24T21:42:03.386Z,10.62
2023-05-24T21:44:27.057Z,10.68
2023-05-24T21:46:50.724Z,10.67
2023-05-24T21:49:15.186Z,10.73
2023-05-24T21:51:38.819Z,10.62
2023-05-24T21:54:02.523Z,10.65
2023-05-24T21:56:28.045Z,10.64
2023-05-24T21:58:51.664Z,10.65
2023-05-24T22:01:15.445Z,10.60
2023-05-24T22:03:39.269Z,10.49
2023-05-24T22:06:02.971Z,10.52
2023-05-24T22:08:26.655Z,10.48
2023-05-24T22:10:50.223Z,10.43
2023-05-24T22:13:15.584Z,10.43
2023-05-24T22:15:39.157Z,10.29
2023-05-24T22:18:02.876Z,10.27
2023-05-24T22:20:27.619Z,10.34
2023-05-24T22:22:53.490Z,10.26
2023-05-24T22:25:19.625Z,10.28
2023-05-24T22:27:43.339Z,10.20
2023-05-24T22:30:10.093Z,10.20
2023-05-24T22:32:33.789Z,10.11
2023-05-24T22:34:57.437Z,10.14
2023-05-24T22:37:21.076Z,10.15
2023-05-24T22:39:45.974Z,10.11
2023-05-24T22:42:09.672Z,10.07
2023-05-24T22:44:33.268Z,10.20
2023-05-24T22:46:58.407Z,10.10
2023-05-24T22:49:22.273Z,10.11
2023-05-24T22:51:46.870Z,10.04
2023-05-24T22:54:12.878Z,10.01
2023-05-24T22:56:36.696Z,9.97
2023-05-24T22:59:00.242Z,9.91
2023-05-24T23:01:24.073Z,9.88
2023-05-24T23:03:49.043Z,10.03
2023-05-24T23:06:13.286Z,10.01
2023-05-24T23:08:37.529Z,9.98
2023-05-24T23:11:01.515Z,10.01
2023-05-24T23:13:27.942Z,10.03
2023-05-24T23:15:51.917Z,10.07
2023-05-24T23:18:16.264Z,10.06
2023-05-24T23:20:41.424Z,10.06
2023-05-24T23:23:06.115Z,9.97
2023-05-24T23:25:29.783Z,9.82
2023-05-24T23:27:53.348Z,9.82
2023-05-24T23:30:17.354Z,9.85
2023-05-24T23:32:40.990Z,9.86
2023-05-24T23:35:04.795Z,9.91
2023-05-24T23:37:29.826Z,9.77
2023-05-24T23:39:53.434Z,9.84
2023-05-24T23:42:17.056Z,9.84
2023-05-24T23:44:40.677Z,9.88
2023-05-24T23:47:04.424Z,9.87
2023-05-24T23:49:28.199Z,9.96
2023-05-24T23:51:51.779Z,9.91
2023-05-24T23:54:16.921Z,9.88
2023-05-24T23:56:40.656Z,9.90
2023-05-24T23:59:04.783Z,9.90
